createdAt,value
2022-08-14T00:00:08.256Z,99.90
2022-08-14T00:02:12.634Z,99.90
2022-08-14T00:04:32.131Z,99.90
2022-08-14T00:06:39.114Z,99.90
2022-08-14T00:08:46.986Z,99.90
2022-08-14T00:10:52.583Z,99.90
2022-08-14T00:12:58.962Z,99.90
2022-08-14T00:15:03.956Z,99.90
2022-08-14T00:17:09.827Z,99.90
2022-08-14T00:19:19.325Z,99.90
2022-08-14T00:21:28.187Z,99.90
2022-08-14T00:23:35.382Z,99.90
2022-08-14T00:25:42.046Z,99.90
2022-08-14T00:27:49.438Z,99.90
2022-08-14T00:30:01.392Z,99.90
2022-08-14T00:32:52.399Z,99.90
2022-08-14T00:34:36.830Z,99.90
2022-08-14T00:36:49.973Z,99.90
2022-08-14T00:38:53.882Z,99.90
2022-08-14T00:40:57.535Z,99.90
2022-08-14T00:45:15.110Z,99.90
2022-08-14T00:47:21.491Z,99.90
2022-08-14T00:49:30.199Z,99.90
2022-08-14T00:51:37.913Z,99.90
2022-08-14T00:53:42.962Z,99.90
2022-08-14T00:55:48.118Z,99.90
2022-08-14T00:58:12.686Z,99.90
2022-08-14T01:53:25.440Z,99.90
2022-08-14T01:55:40.248Z,99.90
2022-08-14T01:58:00.790Z,99.90
2022-08-14T02:00:13.734Z,99.90
2022-08-14T02:02:22.176Z,99.90
2022-08-14T02:06:54.186Z,99.90
2022-08-14T02:08:58.308Z,99.90
2022-08-14T02:11:22.529Z,99.90
2022-08-14T02:13:29.381Z,99.90
2022-08-14T02:15:35.112Z,99.90
2022-08-14T02:17:39.167Z,99.90
2022-08-14T02:19:45.460Z,99.90
2022-08-14T02:21:54.810Z,99.90
2022-08-14T02:24:01.908Z,99.90
2022-08-14T02:26:24.797Z,99.90
2022-08-14T02:28:57.268Z,99.90
2022-08-14T02:31:00.378Z,99.90
2022-08-14T02:33:06.026Z,99.90
2022-08-14T02:35:18.052Z,99.90
2022-08-14T02:37:21.511Z,99.90
2022-08-14T02:41:38.946Z,99.90
2022-08-14T02:59:06.449Z,99.90
2022-08-14T03:03:17.027Z,99.90
2022-08-14T03:05:21.154Z,99.90
2022-08-14T03:07:25.931Z,99.90
2022-08-14T03:09:42.430Z,99.90
2022-08-14T03:11:56.012Z,99.90
2022-08-14T03:14:00.042Z,99.90
2022-08-14T03:16:05.741Z,99.90
2022-08-14T03:18:18.529Z,99.90
2022-08-14T03:20:22.805Z,99.90
2022-08-14T03:22:29.918Z,99.90
2022-08-14T03:24:34.941Z,99.90
2022-08-14T03:26:40.859Z,99.90
2022-08-14T03:30:54.854Z,99.90
2022-08-14T03:32:59.099Z,99.90
2022-08-14T03:35:06.748Z,99.90
2022-08-14T03:39:38.030Z,99.90
2022-08-14T03:41:46.241Z,99.90
2022-08-14T03:43:57.390Z,99.90
2022-08-14T03:46:10.005Z,99.90
2022-08-14T03:48:31.589Z,99.90
2022-08-14T03:50:44.755Z,99.90
2022-08-14T03:52:55.806Z,99.90
2022-08-14T03:55:01.621Z,99.90
2022-08-14T03:57:09.272Z,99.90
2022-08-14T03:59:18.494Z,99.90
2022-08-14T04:01:29.323Z,99.90
2022-08-14T04:03:42.889Z,99.90
2022-08-14T04:05:50.223Z,99.90
2022-08-14T04:08:08.251Z,99.90
2022-08-14T04:10:12.663Z,99.90
2022-08-14T04:12:26.449Z,99.90
2022-08-14T04:14:32.168Z,99.90
2022-08-14T04:18:54.453Z,99.90
2022-08-14T04:20:58.728Z,99.90
2022-08-14T04:23:03.157Z,99.90
2022-08-14T04:25:10.682Z,99.90
2022-08-14T04:27:16.748Z,99.90
2022-08-14T04:29:21.218Z,99.90
2022-08-14T04:32:58.331Z,99.90
2022-08-14T04:33:57.511Z,99.90
2022-08-14T04:36:01.541Z,99.90
2022-08-14T04:38:37.062Z,99.90
2022-08-14T04:41:00.048Z,99.90
2022-08-14T04:43:21.059Z,99.90
2022-08-14T04:45:34.274Z,99.90
2022-08-14T04:47:56.843Z,99.90
2022-08-14T04:50:00.721Z,99.90
2022-08-14T04:54:24.488Z,99.90
2022-08-14T04:56:34.568Z,99.90
2022-08-14T04:58:39.120Z,99.90
2022-08-14T05:00:43.159Z,99.90
2022-08-14T05:02:53.797Z,99.90
2022-08-14T05:05:01.290Z,99.90
2022-08-14T05:07:05.891Z,99.90
2022-08-14T05:09:13.925Z,99.90
2022-08-14T05:11:19.391Z,99.90
2022-08-14T05:13:29.954Z,99.90
2022-08-14T05:15:37.190Z,99.90
2022-08-14T05:17:54.031Z,99.90
2022-08-14T05:21:55.430Z,99.90
2022-08-14T05:22:38.264Z,99.90
2022-08-14T05:24:41.998Z,99.90
2022-08-14T05:26:48.068Z,99.90
2022-08-14T05:28:51.987Z,99.90
2022-08-14T05:30:57.559Z,99.90
2022-08-14T05:33:01.479Z,99.90
2022-08-14T05:35:05.860Z,99.90
2022-08-14T05:37:15.455Z,99.90
2022-08-14T05:39:19.497Z,99.90
2022-08-14T05:41:23.320Z,99.90
2022-08-14T05:43:42.851Z,99.90
2022-08-14T05:45:48.606Z,99.90
2022-08-14T05:47:54.810Z,99.90
2022-08-14T05:49:59.430Z,99.90
2022-08-14T05:52:03.312Z,99.90
2022-08-14T06:09:10.027Z,99.90
2022-08-14T06:32:52.333Z,99.90
2022-08-14T06:35:09.920Z,99.90
2022-08-14T06:37:20.028Z,99.90
2022-08-14T06:39:37.411Z,99.90
2022-08-14T06:44:02.641Z,99.90
2022-08-14T06:46:12.937Z,99.90
2022-08-14T06:50:33.691Z,99.90
2022-08-14T06:52:41.702Z,99.90
2022-08-14T06:54:54.324Z,99.90
2022-08-14T06:57:08.574Z,99.90
2022-08-14T07:01:37.359Z,99.80
2022-08-14T07:03:58.492Z,98.50
2022-08-14T07:06:03.855Z,97.40
2022-08-14T07:10:26.729Z,99.90
2022-08-14T07:13:01.015Z,93.20
2022-08-14T07:15:01.104Z,93.80
2022-08-14T07:17:07.373Z,93.00
2022-08-14T07:19:11.014Z,85.40
2022-08-14T07:21:16.196Z,85.00
2022-08-14T07:27:40.922Z,77.60
2022-08-14T07:29:46.300Z,77.50
2022-08-14T07:31:51.315Z,69.70
2022-08-14T07:36:27.006Z,60.20
2022-08-14T07:42:51.271Z,59.20
2022-08-14T07:53:28.385Z,57.30
2022-08-14T07:59:49.400Z,54.70
2022-08-14T08:04:16.410Z,48.10
2022-08-14T08:08:31.475Z,50.80
2022-08-14T08:15:11.105Z,50.30
2022-08-14T08:17:18.934Z,52.60
2022-08-14T08:19:22.919Z,52.80
2022-08-14T08:21:27.156Z,54.00
2022-08-14T08:23:43.485Z,50.60
2022-08-14T08:25:55.053Z,49.90
2022-08-14T08:30:18.432Z,52.00
2022-08-14T08:34:50.532Z,47.00
2022-08-14T08:36:57.767Z,47.20
2022-08-14T08:39:16.919Z,45.10
2022-08-14T08:41:31.704Z,43.50
2022-08-14T08:47:50.822Z,42.30
2022-08-14T08:54:18.358Z,42.50
2022-08-14T08:58:41.148Z,40.80
2022-08-14T09:03:06.973Z,44.10
2022-08-14T09:05:13.921Z,40.80
2022-08-14T09:09:33.044Z,41.60
2022-08-14T09:11:37.265Z,38.20
2022-08-14T09:13:40.979Z,39.70
2022-08-14T09:15:48.007Z,39.70
2022-08-14T09:34:04.351Z,37.40
2022-08-14T09:40:49.117Z,37.60
2022-08-14T09:58:41.891Z,38.70
2022-08-14T10:05:09.169Z,41.20
2022-08-14T10:27:27.267Z,36.30
2022-08-14T10:45:23.151Z,39.30
2022-08-14T11:05:43.369Z,37.60
2022-08-14T11:59:19.127Z,39.40
2022-08-14T12:01:31.541Z,41.00
2022-08-14T12:03:51.252Z,41.90
2022-08-14T12:06:07.188Z,41.40
2022-08-14T12:08:39.113Z,44.30
2022-08-14T12:10:46.959Z,41.40
2022-08-14T12:12:56.818Z,42.40
2022-08-14T12:17:09.522Z,42.20
2022-08-14T12:19:19.162Z,41.80
2022-08-14T12:21:29.460Z,43.50
2022-08-14T12:28:27.279Z,41.60
2022-08-14T12:30:42.380Z,42.60
2022-08-14T12:37:10.159Z,38.80
2022-08-14T12:39:21.423Z,43.20
2022-08-14T12:41:37.277Z,44.00
2022-08-14T12:43:53.793Z,40.30
2022-08-14T12:46:00.577Z,43.60
2022-08-14T12:48:21.653Z,41.40
2022-08-14T12:50:49.828Z,42.30
2022-08-14T12:53:13.943Z,42.30
2022-08-14T12:55:22.948Z,41.80
2022-08-14T12:57:43.427Z,42.60
2022-08-14T12:59:50.687Z,42.20
2022-08-14T13:02:03.154Z,39.50
2022-08-14T13:04:13.298Z,41.80
2022-08-14T13:06:29.095Z,43.80
2022-08-14T13:08:37.724Z,45.20
2022-08-14T13:10:53.373Z,45.20
2022-08-14T13:13:13.676Z,43.60
2022-08-14T13:15:20.023Z,45.20
2022-08-14T13:17:28.312Z,46.40
2022-08-14T13:19:32.824Z,47.00
2022-08-14T13:22:05.785Z,47.10
2022-08-14T13:24:04.785Z,48.80
2022-08-14T13:26:11.072Z,44.20
2022-08-14T13:28:33.879Z,42.20
2022-08-14T13:30:43.291Z,47.10
2022-08-14T13:32:47.973Z,46.30
2022-08-14T13:34:57.375Z,44.30
2022-08-14T13:37:07.308Z,44.90
2022-08-14T13:39:12.905Z,46.40
2022-08-14T13:41:24.946Z,44.90
2022-08-14T13:43:49.430Z,45.00
2022-08-14T13:46:04.055Z,48.30
2022-08-14T13:48:28.554Z,47.00
2022-08-14T13:50:39.673Z,49.90
2022-08-14T13:52:51.623Z,45.80
2022-08-14T13:55:03.577Z,44.50
2022-08-14T13:57:13.127Z,48.30
2022-08-14T13:59:37.213Z,46.60
2022-08-14T14:01:46.063Z,46.40
2022-08-14T14:03:59.803Z,48.30
2022-08-14T14:06:09.236Z,46.00
2022-08-14T14:08:19.086Z,47.40
2022-08-14T14:10:43.141Z,47.70
2022-08-14T14:12:56.244Z,47.20
2022-08-14T14:15:04.892Z,46.60
2022-08-14T14:17:12.914Z,47.10
2022-08-14T14:19:26.271Z,47.40
2022-08-14T14:21:34.745Z,45.30
2022-08-14T14:23:39.769Z,47.20
2022-08-14T14:25:51.292Z,46.20
2022-08-14T14:28:04.650Z,45.30
2022-08-14T14:30:46.127Z,47.80
2022-08-14T14:33:02.344Z,51.20
2022-08-14T14:35:12.241Z,47.60
2022-08-14T14:37:24.243Z,48.30
2022-08-14T14:39:29.228Z,49.70
2022-08-14T14:41:43.717Z,49.00
2022-08-14T14:43:52.137Z,50.70
2022-08-14T14:46:00.003Z,54.50
2022-08-14T14:48:09.752Z,58.90
2022-08-14T14:50:14.994Z,53.00
2022-08-14T14:52:27.488Z,54.70
2022-08-14T14:54:37.658Z,58.20
2022-08-14T14:56:51.212Z,58.10
2022-08-14T14:59:03.440Z,55.80
2022-08-14T15:01:11.512Z,59.10
2022-08-14T15:03:18.166Z,63.30
2022-08-14T15:05:24.548Z,62.40
2022-08-14T15:07:33.074Z,63.40
2022-08-14T15:09:39.202Z,66.00
2022-08-14T15:11:45.621Z,66.60
2022-08-14T15:13:57.543Z,65.10
2022-08-14T15:16:01.593Z,68.40
2022-08-14T15:18:14.819Z,68.20
2022-08-14T15:20:31.532Z,67.60
2022-08-14T15:22:39.673Z,69.90
2022-08-14T15:24:47.756Z,70.30
2022-08-14T15:26:51.707Z,71.50
2022-08-14T15:29:03.020Z,72.30
2022-08-14T15:31:09.994Z,73.50
2022-08-14T15:33:16.157Z,66.50
2022-08-14T15:35:25.548Z,69.10
2022-08-14T15:37:35.463Z,70.70
2022-08-14T15:39:49.369Z,72.20
2022-08-14T15:41:59.286Z,72.60
2022-08-14T15:44:04.879Z,70.10
2022-08-14T15:46:41.429Z,64.00
2022-08-14T15:48:51.422Z,60.40
2022-08-14T15:51:04.958Z,58.30
2022-08-14T15:53:12.371Z,64.00
2022-08-14T15:55:17.861Z,66.50
2022-08-14T15:57:22.762Z,65.00
2022-08-14T15:59:28.066Z,68.40
2022-08-14T16:01:52.769Z,70.20
2022-08-14T16:04:00.522Z,69.60
2022-08-14T16:06:10.916Z,69.70
2022-08-14T16:08:26.909Z,75.90
2022-08-14T16:10:33.529Z,72.80
2022-08-14T16:12:41.594Z,73.10
2022-08-14T16:14:50.821Z,61.80
2022-08-14T16:17:00.156Z,63.50
2022-08-14T16:19:09.727Z,65.50
2022-08-14T16:21:19.407Z,62.40
2022-08-14T16:23:23.548Z,69.70
2022-08-14T16:25:35.387Z,62.60
2022-08-14T16:27:41.545Z,65.20
2022-08-14T16:29:49.704Z,67.80
2022-08-14T16:31:58.243Z,76.00
2022-08-14T16:34:44.397Z,70.30
2022-08-14T16:36:30.551Z,70.20
2022-08-14T16:38:46.223Z,64.20
2022-08-14T16:41:14.950Z,66.40
2022-08-14T16:43:28.401Z,72.00
2022-08-14T16:45:33.722Z,70.00
2022-08-14T16:47:43.078Z,76.70
2022-08-14T16:50:04.563Z,79.70
2022-08-14T16:52:25.513Z,80.70
2022-08-14T16:54:44.680Z,79.30
2022-08-14T16:56:51.402Z,81.50
2022-08-14T16:59:18.004Z,86.90
2022-08-14T17:01:25.346Z,86.40
2022-08-14T17:03:40.726Z,85.20
2022-08-14T17:05:49.283Z,80.80
2022-08-14T17:08:31.914Z,82.50
2022-08-14T17:11:00.837Z,84.90
2022-08-14T17:13:47.588Z,84.00
2022-08-14T17:16:06.590Z,78.90
2022-08-14T17:18:14.854Z,80.00
2022-08-14T17:20:53.682Z,83.20
2022-08-14T17:22:57.357Z,88.00
2022-08-14T17:25:10.869Z,90.90
2022-08-14T17:27:18.355Z,91.70
2022-08-14T17:29:29.429Z,92.00
2022-08-14T17:31:58.369Z,91.80
2022-08-14T17:34:02.525Z,90.00
2022-08-14T17:36:21.292Z,90.10
2022-08-14T17:38:38.456Z,90.50
2022-08-14T17:40:44.768Z,90.00
2022-08-14T17:43:02.406Z,91.60
2022-08-14T17:45:10.046Z,88.40
2022-08-14T17:47:18.168Z,92.00
2022-08-14T17:49:26.197Z,94.10
2022-08-14T17:51:32.172Z,94.30
2022-08-14T17:53:53.492Z,94.80
2022-08-14T17:56:03.981Z,98.30
2022-08-14T17:58:20.603Z,98.00
2022-08-14T18:00:27.372Z,99.90
2022-08-14T18:02:32.194Z,99.40
2022-08-14T18:04:37.985Z,99.90
2022-08-14T18:07:06.934Z,99.90
2022-08-14T18:09:26.186Z,99.90
2022-08-14T18:11:45.798Z,99.90
2022-08-14T18:13:52.782Z,99.90
2022-08-14T18:16:02.610Z,99.90
2022-08-14T18:18:14.207Z,99.90
2022-08-14T18:21:42.863Z,99.90
2022-08-14T18:22:49.546Z,99.90
2022-08-14T18:24:53.967Z,99.90
2022-08-14T18:27:06.873Z,99.90
2022-08-14T18:29:20.483Z,99.90
2022-08-14T18:31:44.235Z,99.90
2022-08-14T18:33:55.148Z,99.90
2022-08-14T18:36:47.797Z,99.90
2022-08-14T18:38:46.378Z,99.90
2022-08-14T18:41:19.211Z,99.90
2022-08-14T18:43:45.403Z,99.90
2022-08-14T18:46:03.423Z,99.90
2022-08-14T18:48:50.403Z,99.90
2022-08-14T18:50:56.853Z,99.90
2022-08-14T18:53:11.480Z,99.90
2022-08-14T18:55:53.343Z,99.90
2022-08-14T18:58:28.047Z,99.90
2022-08-14T19:00:52.151Z,99.90
2022-08-14T19:02:58.156Z,99.90
2022-08-14T19:05:03.161Z,99.90
2022-08-14T19:07:19.447Z,99.90
2022-08-14T19:10:00.987Z,99.90
2022-08-14T19:12:15.395Z,99.90
2022-08-14T19:14:45.205Z,99.90
2022-08-14T19:16:53.696Z,99.90
2022-08-14T19:19:03.495Z,99.90
2022-08-14T19:21:13.310Z,99.90
2022-08-14T19:23:19.528Z,99.90
2022-08-14T19:25:54.757Z,99.90
2022-08-14T19:28:31.185Z,99.90
2022-08-14T19:30:37.088Z,99.90
2022-08-14T19:32:42.227Z,99.90
2022-08-14T19:34:52.855Z,99.90
2022-08-14T19:37:10.116Z,99.90
2022-08-14T19:39:19.233Z,99.90
2022-08-14T19:41:29.860Z,99.90
2022-08-14T19:43:50.764Z,99.90
2022-08-14T19:46:00.451Z,99.90
2022-08-14T19:48:15.622Z,99.90
2022-08-14T19:50:40.213Z,99.90
2022-08-14T19:52:45.963Z,99.90
2022-08-14T19:54:53.591Z,99.90
2022-08-14T19:57:04.485Z,99.90
2022-08-14T19:59:09.297Z,99.90
2022-08-14T20:01:14.124Z,99.90
2022-08-14T20:03:24.007Z,99.90
2022-08-14T20:05:28.707Z,99.90
2022-08-14T20:07:59.071Z,99.90
2022-08-14T20:11:04.790Z,99.90
2022-08-14T20:12:35.282Z,99.90
2022-08-14T20:14:40.963Z,99.90
2022-08-14T20:17:05.466Z,99.90
2022-08-14T20:19:24.860Z,99.90
2022-08-14T20:21:58.248Z,99.90
2022-08-14T20:24:30.428Z,99.90
2022-08-14T20:26:36.800Z,99.90
2022-08-14T20:28:51.434Z,99.90
2022-08-14T20:31:14.619Z,99.90
2022-08-14T20:33:23.382Z,99.90
2022-08-14T20:35:35.861Z,99.90
2022-08-14T20:37:42.767Z,99.90
2022-08-14T20:39:54.552Z,99.90
2022-08-14T20:42:23.455Z,99.90
2022-08-14T20:44:48.631Z,99.90
2022-08-14T20:47:03.943Z,99.90
2022-08-14T20:49:19.517Z,99.90
2022-08-14T20:51:36.561Z,99.90
2022-08-14T20:53:42.150Z,99.90
2022-08-14T20:55:45.781Z,99.90
2022-08-14T20:57:57.724Z,99.90
2022-08-14T21:00:03.017Z,99.90
2022-08-14T21:02:30.509Z,99.90
2022-08-14T21:04:47.387Z,99.90
2022-08-14T21:07:25.020Z,99.90
2022-08-14T21:09:16.993Z,99.90
2022-08-14T21:11:28.488Z,99.90
2022-08-14T21:14:19.893Z,99.90
2022-08-14T21:15:59.688Z,99.90
2022-08-14T21:18:08.029Z,99.90
2022-08-14T21:20:21.213Z,99.90
2022-08-14T21:22:30.748Z,99.90
2022-08-14T21:24:39.916Z,99.90
2022-08-14T21:27:00.370Z,99.90
2022-08-14T21:29:11.508Z,99.90
2022-08-14T21:31:15.798Z,99.90
2022-08-14T21:33:21.797Z,99.90
2022-08-14T21:35:25.996Z,99.90
2022-08-14T21:37:32.907Z,99.90
2022-08-14T21:39:39.261Z,99.90
2022-08-14T21:41:50.043Z,99.90
2022-08-14T21:44:20.380Z,99.90
2022-08-14T21:46:24.424Z,99.90
2022-08-14T21:48:33.960Z,99.90
2022-08-14T21:51:00.246Z,99.90
2022-08-14T21:53:05.962Z,99.90
2022-08-14T21:55:13.980Z,99.90
2022-08-14T21:58:04.107Z,99.90
2022-08-14T21:59:45.725Z,99.90
2022-08-14T22:02:00.927Z,99.90
2022-08-14T22:04:33.315Z,99.90
2022-08-14T22:06:34.246Z,99.90
2022-08-14T22:08:45.804Z,99.90
2022-08-14T22:10:59.244Z,99.90
2022-08-14T22:13:05.264Z,99.90
2022-08-14T22:15:14.778Z,99.90
2022-08-14T22:17:19.342Z,99.90
2022-08-14T22:19:47.526Z,99.90
2022-08-14T22:21:54.192Z,99.90
2022-08-14T22:24:00.334Z,99.90
2022-08-14T22:26:05.048Z,99.90
2022-08-14T22:28:13.065Z,99.90
2022-08-14T22:30:18.682Z,99.90
2022-08-14T22:32:26.059Z,99.90
2022-08-14T22:34:48.879Z,99.90
2022-08-14T22:36:53.006Z,99.90
2022-08-14T22:39:00.551Z,99.90
2022-08-14T22:41:25.328Z,99.90
2022-08-14T22:43:35.122Z,99.90
2022-08-14T22:45:42.575Z,99.90
2022-08-14T22:48:02.418Z,99.90
2022-08-14T22:50:30.974Z,99.90
2022-08-14T22:52:38.989Z,99.90
2022-08-14T22:54:52.985Z,99.90
2022-08-14T22:56:59.628Z,99.90
2022-08-14T22:59:09.685Z,99.90
2022-08-14T23:01:22.863Z,99.90
2022-08-14T23:03:28.911Z,99.90
2022-08-14T23:05:40.032Z,99.90
2022-08-14T23:08:59.208Z,99.90
2022-08-14T23:10:31.774Z,99.90
2022-08-14T23:12:54.534Z,99.90
2022-08-14T23:15:02.623Z,99.90
2022-08-14T23:17:12.124Z,99.90
2022-08-14T23:19:17.292Z,99.90
2022-08-14T23:21:25.150Z,99.90
2022-08-14T23:23:34.631Z,99.90
2022-08-14T23:26:00.253Z,99.90
2022-08-14T23:28:34.964Z,99.90
2022-08-14T23:30:43.140Z,99.90
2022-08-14T23:32:58.630Z,99.90
2022-08-14T23:35:06.180Z,99.90
2022-08-14T23:37:12.234Z,99.90
2022-08-14T23:39:19.323Z,99.90
2022-08-14T23:41:23.284Z,99.90
2022-08-14T23:43:30.942Z,99.90
2022-08-14T23:45:37.425Z,99.90
2022-08-14T23:47:52.084Z,99.90
2022-08-14T23:50:00.694Z,99.90
2022-08-14T23:52:50.972Z,99.90
2022-08-14T23:54:48.541Z,99.90
2022-08-14T23:56:59.966Z,99.90
2022-08-14T23:59:08.295Z,99.90
